createdAt,value
2022-12-09T00:01:08.095Z,100600.19
2022-12-09T00:03:36.882Z,100601.41
2022-12-09T00:06:09.429Z,100600.38
2022-12-09T00:08:37.744Z,100602.44
2022-12-09T00:11:06.684Z,100601.63
2022-12-09T00:13:36.070Z,100600.78
2022-12-09T00:16:07.346Z,100598.13
2022-12-09T00:18:35.368Z,100598.94
2022-12-09T00:21:12.884Z,100598.13
2022-12-09T00:23:40.847Z,100594.44
2022-12-09T00:26:08.898Z,100590.50
2022-12-09T00:28:38.157Z,100596.47
2022-12-09T00:31:07.025Z,100591.34
2022-12-09T00:33:36.133Z,100598.53
2022-12-09T00:36:08.311Z,100596.69
2022-12-09T00:38:36.264Z,100596.69
2022-12-09T00:41:04.472Z,100598.53
2022-12-09T00:43:32.241Z,100596.06
2022-12-09T00:46:02.081Z,100603.03
2022-12-09T00:48:30.959Z,100603.03
2022-12-09T00:50:58.898Z,100593.19
2022-12-09T00:53:26.907Z,100596.06
2022-12-09T00:55:54.649Z,100587.63
2022-12-09T00:58:22.392Z,100589.06
2022-12-09T01:00:50.913Z,100595.22
2022-12-09T01:03:20.907Z,100590.91
2022-12-09T01:05:49.352Z,100595.84
2022-12-09T01:08:17.547Z,100596.44
2022-12-09T01:10:47.053Z,100591.94
2022-12-09T01:13:16.519Z,100591.13
2022-12-09T01:15:44.558Z,100601.59
2022-12-09T01:18:13.544Z,100599.75
2022-12-09T01:20:42.811Z,100602.41
2022-12-09T01:23:10.534Z,100604.47
2022-12-09T01:25:38.968Z,100603.84
2022-12-09T01:28:06.766Z,100606.50
2022-12-09T01:30:34.490Z,100603.22
2022-12-09T01:33:02.228Z,100599.53
2022-12-09T01:35:30.102Z,100596.22
2022-12-09T01:37:59.309Z,100598.69
2022-12-09T01:40:27.076Z,100599.53
2022-12-09T01:42:54.831Z,100602.41
2022-12-09T01:45:44.173Z,100601.56
2022-12-09T01:48:14.685Z,100602.59
2022-12-09T01:50:47.439Z,100606.28
2022-12-09T01:53:19.599Z,100605.47
2022-12-09T01:55:47.458Z,100608.97
2022-12-09T01:58:16.667Z,100606.69
2022-12-09T02:00:45.738Z,100601.56
2022-12-09T02:03:13.849Z,100598.88
2022-12-09T02:05:41.805Z,100599.69
2022-12-09T02:08:13.121Z,100595.19
2022-12-09T02:10:53.007Z,100605.03
2022-12-09T02:13:26.873Z,100605.03
2022-12-09T02:15:56.124Z,100605.88
2022-12-09T02:18:30.869Z,100601.56
2022-12-09T02:21:02.864Z,100603.41
2022-12-09T02:23:38.741Z,100600.94
2022-12-09T02:26:17.574Z,100605.44
2022-12-09T02:29:05.039Z,100600.94
2022-12-09T02:31:43.687Z,100598.25
2022-12-09T02:34:15.994Z,100598.25
2022-12-09T02:36:53.332Z,100597.25
2022-12-09T02:39:25.019Z,100589.44
2022-12-09T02:41:54.878Z,100589.44
2022-12-09T02:44:25.235Z,100591.06
2022-12-09T02:46:54.574Z,100588.81
2022-12-09T02:49:26.208Z,100593.13
2022-12-09T02:51:55.391Z,100598.47
2022-12-09T02:54:24.718Z,100585.94
2022-12-09T02:56:57.071Z,100586.97
2022-12-09T02:59:25.123Z,100587.97
2022-12-09T03:02:01.894Z,100588.81
2022-12-09T03:04:33.024Z,100590.44
2022-12-09T03:07:13.206Z,100586.97
2022-12-09T03:09:46.456Z,100582.44
2022-12-09T03:12:18.832Z,100582.25
2022-12-09T03:14:50.785Z,100592.28
2022-12-09T03:17:22.908Z,100588.19
2022-12-09T03:19:56.155Z,100575.25
2022-12-09T03:22:28.771Z,100578.72
2022-12-09T03:25:00.725Z,100572.78
2022-12-09T03:27:35.473Z,100572.38
2022-12-09T03:30:07.556Z,100572.38
2022-12-09T03:32:38.698Z,100571.53
2022-12-09T03:35:14.465Z,100566.84
2022-12-09T03:37:45.199Z,100573.00
2022-12-09T03:40:17.979Z,100570.53
2022-12-09T03:42:52.022Z,100568.69
2022-12-09T03:45:23.630Z,100558.41
2022-12-09T03:47:52.260Z,100561.69
2022-12-09T03:50:23.363Z,100559.66
2022-12-09T03:52:54.769Z,100567.03
2022-12-09T03:55:34.935Z,100563.34
2022-12-09T03:58:07.175Z,100564.38
2022-12-09T04:00:37.605Z,100561.69
2022-12-09T04:03:05.773Z,100559.22
2022-12-09T04:05:35.927Z,100573.19
2022-12-09T04:08:03.705Z,100571.53
2022-12-09T04:10:31.397Z,100565.59
2022-12-09T04:12:59.088Z,100555.75
2022-12-09T04:15:26.925Z,100551.63
2022-12-09T04:17:54.886Z,100558.41
2022-12-09T04:20:22.719Z,100554.72
2022-12-09T04:22:52.254Z,100558.00
2022-12-09T04:25:19.929Z,100553.69
2022-12-09T04:27:47.964Z,100554.50
2022-12-09T04:30:15.950Z,100550.19
2022-12-09T04:32:44.120Z,100550.41
2022-12-09T04:35:12.028Z,100550.41
2022-12-09T04:37:39.681Z,100551.44
2022-12-09T04:40:10.284Z,100548.97
2022-12-09T04:42:38.451Z,100547.50
2022-12-09T04:45:07.724Z,100553.03
2022-12-09T04:47:35.591Z,100541.56
2022-12-09T04:50:05.079Z,100544.22
2022-12-09T04:52:33.778Z,100546.88
2022-12-09T04:55:01.460Z,100550.38
2022-12-09T04:57:30.872Z,100552.03
2022-12-09T04:59:58.628Z,100551.00
2022-12-09T05:02:26.796Z,100546.69
2022-12-09T05:04:54.935Z,100552.03
2022-12-09T05:07:23.420Z,100544.63
2022-12-09T05:09:51.731Z,100542.38
2022-12-09T05:12:19.464Z,100544.03
2022-12-09T05:14:48.507Z,100546.50
2022-12-09T05:17:16.586Z,100523.69
2022-12-09T05:19:44.814Z,100546.50
2022-12-09T05:22:12.871Z,100543.00
2022-12-09T05:24:41.144Z,100548.34
2022-12-09T05:27:09.275Z,100551.00
2022-12-09T05:29:37.017Z,100542.38
2022-12-09T05:32:06.444Z,100548.72
2022-12-09T05:34:34.577Z,100542.56
2022-12-09T05:37:02.418Z,100544.63
2022-12-09T05:39:30.403Z,100547.50
2022-12-09T05:41:58.266Z,100542.34
2022-12-09T05:44:26.250Z,100545.03
2022-12-09T05:46:54.249Z,100538.47
2022-12-09T05:49:23.773Z,100536.81
2022-12-09T05:51:52.024Z,100542.97
2022-12-09T05:54:20.206Z,100550.56
2022-12-09T05:56:48.950Z,100550.38
2022-12-09T05:59:16.985Z,100548.72
2022-12-09T06:01:45.123Z,100548.94
2022-12-09T06:04:13.116Z,100544.44
2022-12-09T06:06:42.612Z,100541.41
2022-12-09T06:09:12.174Z,100538.56
2022-12-09T06:11:41.227Z,100531.59
2022-12-09T06:14:10.162Z,100532.84
2022-12-09T06:16:39.099Z,100527.28
2022-12-09T06:19:07.654Z,100530.75
2022-12-09T06:21:35.857Z,100534.22
2022-12-09T06:24:06.292Z,100540.41
2022-12-09T06:26:34.416Z,100533.81
2022-12-09T06:29:02.510Z,100521.91
2022-12-09T06:31:31.033Z,100532.19
2022-12-09T06:33:59.979Z,100539.81
2022-12-09T06:36:30.305Z,100535.94
2022-12-09T06:39:04.544Z,100543.13
2022-12-09T06:41:37.300Z,100540.66
2022-12-09T06:44:05.513Z,100545.16
2022-12-09T06:46:33.777Z,100534.47
2022-12-09T06:49:01.786Z,100531.59
2022-12-09T06:51:30.068Z,100531.78
2022-12-09T06:53:58.105Z,100535.28
2022-12-09T06:56:26.236Z,100534.84
2022-12-09T06:58:55.459Z,100540.41
2022-12-09T07:01:25.919Z,100537.31
2022-12-09T07:03:57.147Z,100546.34
2022-12-09T07:06:29.804Z,100550.25
2022-12-09T07:08:59.958Z,100541.81
2022-12-09T07:11:28.272Z,100544.47
2022-12-09T07:13:57.757Z,100553.72
2022-12-09T07:16:26.671Z,100552.88
2022-12-09T07:18:54.775Z,100554.09
2022-12-09T07:21:24.819Z,100547.72
2022-12-09T07:23:53.977Z,100556.97
2022-12-09T07:26:22.832Z,100555.50
2022-12-09T07:28:51.314Z,100563.94
2022-12-09T07:31:22.667Z,100562.28
2022-12-09T07:33:51.688Z,100561.84
2022-12-09T07:36:21.527Z,100566.38
2022-12-09T07:38:50.327Z,100563.91
2022-12-09T07:41:19.398Z,100565.75
2022-12-09T07:43:48.192Z,100574.56
2022-12-09T07:46:17.590Z,100572.91
2022-12-09T07:48:48.124Z,100570.88
2022-12-09T07:51:17.139Z,100569.22
2022-12-09T07:53:45.314Z,100575.59
2022-12-09T07:56:15.706Z,100576.41
2022-12-09T07:58:45.251Z,100574.56
2022-12-09T08:01:15.447Z,100563.03
2022-12-09T08:03:43.695Z,100581.75
2022-12-09T08:06:15.118Z,100577.44
2022-12-09T08:08:44.012Z,100579.91
2022-12-09T08:11:14.179Z,100576.41
2022-12-09T08:13:43.149Z,100561.59
2022-12-09T08:16:13.585Z,100576.22
2022-12-09T08:18:43.106Z,100581.53
2022-12-09T08:21:14.745Z,100582.38
2022-12-09T08:23:42.722Z,100578.88
2022-12-09T08:26:12.038Z,100580.53
2022-12-09T08:28:40.356Z,100576.22
2022-12-09T08:31:10.182Z,100582.56
2022-12-09T08:33:38.991Z,100579.06
2022-12-09T08:36:11.646Z,100573.94
2022-12-09T08:38:41.367Z,100572.91
2022-12-09T08:41:11.229Z,100579.06
2022-12-09T08:43:39.526Z,100582.38
2022-12-09T08:46:07.980Z,100584.22
2022-12-09T08:48:37.843Z,100566.13
2022-12-09T08:51:06.533Z,100583.47
2022-12-09T08:53:34.452Z,100577.97
2022-12-09T08:56:11.749Z,100575.75
2022-12-09T08:58:40.311Z,100577.03
2022-12-09T09:01:08.984Z,100570.44
2022-12-09T09:03:37.397Z,100578.25
2022-12-09T09:06:10.737Z,100578.84
2022-12-09T09:08:39.570Z,100579.25
2022-12-09T09:11:11.527Z,100584.38
2022-12-09T09:13:40.357Z,100575.91
2022-12-09T09:16:11.220Z,100568.09
2022-12-09T09:18:39.497Z,100583.47
2022-12-09T09:21:08.336Z,100585.50
2022-12-09T09:23:36.704Z,100586.72
2022-12-09T09:26:04.908Z,100585.88
2022-12-09T09:28:34.927Z,100571.50
2022-12-09T09:31:05.399Z,100594.34
2022-12-09T09:33:33.435Z,100594.34
2022-12-09T09:36:09.675Z,100589.66
2022-12-09T09:38:38.715Z,100591.16
2022-12-09T09:41:16.629Z,100589.94
2022-12-09T09:43:46.464Z,100596.75
2022-12-09T09:46:19.895Z,100583.78
2022-12-09T09:48:48.860Z,100592.44
2022-12-09T09:51:19.885Z,100599.63
2022-12-09T09:53:53.281Z,100593.63
2022-12-09T09:56:29.279Z,100593.00
2022-12-09T09:59:11.344Z,100589.03
2022-12-09T10:01:39.613Z,100578.69
2022-12-09T10:04:15.605Z,100589.41
2022-12-09T10:06:49.899Z,100569.09
2022-12-09T10:09:23.174Z,100586.59
2022-12-09T10:12:02.019Z,100589.13
2022-12-09T10:14:42.807Z,100585.84
2022-12-09T10:17:24.132Z,100584.19
2022-12-09T10:19:56.157Z,100588.72
2022-12-09T10:22:28.060Z,100587.69
2022-12-09T10:24:58.405Z,100592.63
2022-12-09T10:27:31.520Z,100589.97
2022-12-09T10:30:03.676Z,100596.97
2022-12-09T10:32:33.775Z,100590.19
2022-12-09T10:35:13.294Z,100592.44
2022-12-09T10:37:41.625Z,100573.53
2022-12-09T10:40:21.974Z,100588.53
2022-12-09T10:43:09.626Z,100570.44
2022-12-09T10:46:16.948Z,100578.66
2022-12-09T10:48:38.670Z,100590.38
2022-12-09T10:51:14.047Z,100576.38
2022-12-09T10:53:48.700Z,100588.72
2022-12-09T10:56:21.933Z,100579.28
2022-12-09T10:58:50.195Z,100594.88
2022-12-09T11:01:19.539Z,100587.69
2022-12-09T11:03:53.645Z,100585.22
2022-12-09T11:06:27.282Z,100581.72
2022-12-09T11:08:58.225Z,100581.72
2022-12-09T11:11:45.366Z,100583.78
2022-12-09T11:14:23.225Z,100582.13
2022-12-09T11:16:54.660Z,100584.81
2022-12-09T11:19:34.177Z,100585.00
2022-12-09T11:22:36.454Z,100578.03
2022-12-09T11:25:20.096Z,100579.03
2022-12-09T11:27:52.273Z,100579.03
2022-12-09T11:30:22.631Z,100572.06
2022-12-09T11:33:01.204Z,100576.56
2022-12-09T11:35:37.409Z,100579.25
2022-12-09T11:38:17.025Z,100578.84
2022-12-09T11:40:45.369Z,100576.41
2022-12-09T11:43:13.310Z,100573.75
2022-12-09T11:45:41.605Z,100568.16
2022-12-09T11:48:35.099Z,100566.31
2022-12-09T11:51:06.947Z,100570.59
2022-12-09T11:53:40.694Z,100568.72
2022-12-09T11:56:17.039Z,100566.59
2022-12-09T11:58:51.227Z,100563.25
2022-12-09T12:01:24.585Z,100560.13
2022-12-09T12:03:56.787Z,100555.75
2022-12-09T12:06:26.838Z,100558.00
2022-12-09T12:08:59.018Z,100563.09
2022-12-09T12:11:35.602Z,100561.84
2022-12-09T12:14:11.519Z,100559.56
2022-12-09T12:16:48.973Z,100550.06
2022-12-09T12:19:23.323Z,100551.69
2022-12-09T12:22:09.485Z,100551.28
2022-12-09T12:24:55.676Z,100557.88
2022-12-09T12:27:39.038Z,100554.97
2022-12-09T12:30:11.041Z,100559.09
2022-12-09T12:33:11.874Z,100559.13
2022-12-09T12:35:56.832Z,100553.25
2022-12-09T12:38:40.819Z,100557.22
2022-12-09T12:41:15.018Z,100562.88
2022-12-09T12:44:26.952Z,100563.34
2022-12-09T12:47:03.198Z,100553.72
2022-12-09T12:49:43.729Z,100550.84
2022-12-09T12:55:27.162Z,100549.22
2022-12-09T12:58:06.041Z,100540.59
2022-12-09T13:00:43.188Z,100545.31
2022-12-09T13:03:22.958Z,100541.59
2022-12-09T13:05:53.562Z,100540.75
2022-12-09T13:08:27.319Z,100539.91
2022-12-09T13:10:58.159Z,100533.88
2022-12-09T13:13:30.320Z,100537.88
2022-12-09T13:16:03.674Z,100536.78
2022-12-09T13:18:35.932Z,100531.56
2022-12-09T13:21:05.848Z,100522.72
2022-12-09T13:23:50.532Z,100541.28
2022-12-09T13:26:27.978Z,100534.09
2022-12-09T13:29:02.687Z,100537.44
2022-12-09T13:31:32.944Z,100527.22
2022-12-09T13:34:16.566Z,100537.75
2022-12-09T13:36:46.578Z,100540.28
2022-12-09T13:39:53.914Z,100540.72
2022-12-09T13:42:54.186Z,100531.28
2022-12-09T13:45:27.869Z,100539.31
2022-12-09T13:47:56.454Z,100532.97
2022-12-09T13:50:27.328Z,100540.38
2022-12-09T13:52:57.787Z,100548.19
2022-12-09T13:55:38.176Z,100546.75
2022-12-09T13:58:55.098Z,100544.91
2022-12-09T14:01:27.465Z,100542.84
2022-12-09T14:04:08.092Z,100555.59
2022-12-09T14:06:41.475Z,100552.94
2022-12-09T14:09:24.936Z,100551.50
2022-12-09T14:11:54.899Z,100549.25
2022-12-09T14:14:48.773Z,100551.50
2022-12-09T14:17:34.181Z,100553.78
2022-12-09T14:20:05.542Z,100552.34
2022-12-09T14:22:35.053Z,100560.34
2022-12-09T14:25:36.127Z,100548.84
2022-12-09T14:28:37.679Z,100565.69
2022-12-09T14:31:08.942Z,100558.31
2022-12-09T14:33:39.101Z,100545.56
2022-12-09T14:36:21.187Z,100558.06
2022-12-09T14:39:25.368Z,100557.84
2022-12-09T14:41:50.826Z,100567.03
2022-12-09T14:44:30.189Z,100561.03
2022-12-09T14:47:15.221Z,100548.22
2022-12-09T14:49:49.222Z,100564.63
2022-12-09T14:52:23.955Z,100556.19
2022-12-09T14:54:54.827Z,100558.91
2022-12-09T14:57:25.743Z,100564.53
2022-12-09T14:59:56.801Z,100570.94
2022-12-09T15:02:26.725Z,100574.28
2022-12-09T15:04:57.081Z,100575.53
2022-12-09T15:07:26.715Z,100579.25
2022-12-09T15:09:57.395Z,100580.88
2022-12-09T15:12:30.439Z,100578.03
2022-12-09T15:15:04.536Z,100575.56
2022-12-09T15:17:37.716Z,100570.22
2022-12-09T15:20:06.783Z,100577.00
2022-12-09T15:22:35.703Z,100574.75
2022-12-09T15:25:04.464Z,100578.84
2022-12-09T15:27:32.479Z,100579.28
2022-12-09T15:30:01.696Z,100580.72
2022-12-09T15:32:31.590Z,100586.47
2022-12-09T15:35:16.443Z,100588.72
2022-12-09T15:37:45.060Z,100587.28
2022-12-09T15:40:16.928Z,100590.78
2022-12-09T15:42:47.647Z,100588.50
2022-12-09T15:45:19.867Z,100588.28
2022-12-09T15:47:53.277Z,100581.88
2022-12-09T15:50:24.257Z,100585.75
2022-12-09T15:52:54.188Z,100583.44
2022-12-09T15:55:26.714Z,100584.81
2022-12-09T15:57:57.137Z,100571.22
2022-12-09T16:00:26.413Z,100586.00
2022-12-09T16:02:54.688Z,100583.19
2022-12-09T16:05:25.300Z,100570.50
2022-12-09T16:07:55.598Z,100586.56
2022-12-09T16:10:26.733Z,100582.09
2022-12-09T16:13:09.774Z,100579.03
2022-12-09T16:15:45.001Z,100586.03
2022-12-09T16:18:18.397Z,100579.88
2022-12-09T16:20:58.980Z,100579.06
2022-12-09T16:23:27.977Z,100570.22
2022-12-09T16:26:06.411Z,100581.50
2022-12-09T16:28:35.273Z,100589.34
2022-12-09T16:31:18.262Z,100584.41
2022-12-09T16:33:49.580Z,100590.78
2022-12-09T16:36:20.243Z,100591.41
2022-12-09T16:39:13.769Z,100579.69
2022-12-09T16:41:58.598Z,100591.81
2022-12-09T16:44:30.797Z,100590.38
2022-12-09T16:47:12.565Z,100586.66
2022-12-09T16:49:42.494Z,100582.97
2022-12-09T16:52:13.743Z,100585.03
2022-12-09T16:54:41.989Z,100584.19
2022-12-09T16:57:13.275Z,100583.38
2022-12-09T16:59:41.351Z,100587.28
2022-12-09T17:02:16.755Z,100581.13
2022-12-09T17:04:44.578Z,100581.72
2022-12-09T17:07:12.335Z,100586.25
2022-12-09T17:09:40.061Z,100600.44
2022-12-09T17:12:08.234Z,100613.59
2022-12-09T17:14:36.004Z,100599.81
2022-12-09T17:17:03.854Z,100611.53
2022-12-09T17:19:33.127Z,100612.97
2022-12-09T17:22:00.887Z,100626.75
2022-12-09T17:24:28.580Z,100622.22
2022-12-09T17:26:56.242Z,100619.97
2022-12-09T17:29:23.949Z,100617.31
2022-12-09T17:31:52.303Z,100623.25
2022-12-09T17:34:20.774Z,100626.56
2022-12-09T17:36:49.870Z,100619.97
2022-12-09T17:39:17.844Z,100630.25
2022-12-09T17:41:45.514Z,100630.88
2022-12-09T17:44:13.201Z,100630.47
2022-12-09T17:46:40.873Z,100627.38
2022-12-09T17:49:08.592Z,100628.81
2022-12-09T17:51:36.740Z,100631.69
2022-12-09T17:54:06.575Z,100640.72
2022-12-09T17:56:34.840Z,100637.84
2022-12-09T17:59:04.469Z,100639.28
2022-12-09T18:01:34.064Z,100641.75
2022-12-09T18:04:07.912Z,100644.44
2022-12-09T18:06:37.666Z,100639.72
2022-12-09T18:09:10.825Z,100652.47
2022-12-09T18:11:38.832Z,100657.59
2022-12-09T18:14:07.260Z,100649.31
2022-12-09T18:16:34.996Z,100646.41
2022-12-09T18:19:04.332Z,100648.44
2022-12-09T18:21:32.325Z,100654.16
2022-12-09T18:24:00.196Z,100648.19
2022-12-09T18:26:32.943Z,100666.78
2022-12-09T18:29:01.782Z,100668.03
2022-12-09T18:31:29.713Z,100668.69
2022-12-09T18:33:57.650Z,100679.63
2022-12-09T18:36:27.571Z,100673.25
2022-12-09T18:38:55.259Z,100676.94
2022-12-09T18:41:25.121Z,100675.72
2022-12-09T18:43:55.654Z,100674.47
2022-12-09T18:46:26.917Z,100679.59
2022-12-09T18:48:58.794Z,100679.41
2022-12-09T18:51:27.452Z,100680.81
2022-12-09T18:53:55.524Z,100686.78
2022-12-09T18:56:23.227Z,100683.28
2022-12-09T18:59:05.830Z,100681.22
2022-12-09T19:01:39.229Z,100691.31
2022-12-09T19:04:08.707Z,100684.50
2022-12-09T19:06:38.303Z,100687.78
2022-12-09T19:09:07.674Z,100684.72
2022-12-09T19:11:37.501Z,100686.34
2022-12-09T19:14:06.049Z,100691.09
2022-12-09T19:16:35.954Z,100694.38
2022-12-09T19:19:09.461Z,100690.47
2022-12-09T19:21:38.136Z,100673.59
2022-12-09T19:24:06.811Z,100694.78
2022-12-09T19:26:36.357Z,100693.97
2022-12-09T19:29:10.536Z,100700.53
2022-12-09T19:31:41.932Z,100701.75
2022-12-09T19:34:13.148Z,100695.19
2022-12-09T19:36:41.181Z,100700.09
2022-12-09T19:39:10.404Z,100706.25
2022-12-09T19:41:40.372Z,100706.50
2022-12-09T19:44:08.700Z,100704.03
2022-12-09T19:46:38.336Z,100706.91
2022-12-09T19:49:07.946Z,100703.59
2022-12-09T19:51:35.658Z,100702.16
2022-12-09T19:54:03.426Z,100704.00
2022-12-09T19:56:31.443Z,100697.41
2022-12-09T19:59:00.604Z,100704.22
2022-12-09T20:01:30.321Z,100700.28
2022-12-09T20:04:08.874Z,100697.81
2022-12-09T20:06:43.837Z,100702.53
2022-12-09T20:09:13.881Z,100706.66
2022-12-09T20:11:42.738Z,100707.69
2022-12-09T20:14:13.146Z,100721.25
2022-12-09T20:16:41.273Z,100722.06
2022-12-09T20:19:09.500Z,100722.66
2022-12-09T20:21:37.686Z,100722.25
2022-12-09T20:24:07.813Z,100728.81
2022-12-09T20:26:38.060Z,100730.66
2022-12-09T20:29:08.408Z,100731.50
2022-12-09T20:31:37.585Z,100724.72
2022-12-09T20:34:07.910Z,100727.19
2022-12-09T20:36:37.875Z,100731.91
2022-12-09T20:39:11.242Z,100733.75
2022-12-09T20:41:39.232Z,100721.59
2022-12-09T20:44:07.054Z,100734.13
2022-12-09T20:46:35.560Z,100730.84
2022-12-09T20:49:03.538Z,100729.19
2022-12-09T20:51:33.866Z,100737.41
2022-12-09T20:54:02.169Z,100737.81
2022-12-09T20:56:31.314Z,100741.09
2022-12-09T20:58:59.356Z,100741.28
2022-12-09T21:01:28.987Z,100739.03
2022-12-09T21:03:58.296Z,100748.25
2022-12-09T21:06:29.368Z,100737.38
2022-12-09T21:08:57.472Z,100735.09
2022-12-09T21:11:26.434Z,100742.28
2022-12-09T21:13:58.670Z,100735.28
2022-12-09T21:16:28.909Z,100735.50
2022-12-09T21:18:58.148Z,100737.53
2022-12-09T21:21:27.556Z,100743.50
2022-12-09T21:23:55.309Z,100737.34
2022-12-09T21:26:24.630Z,100735.06
2022-12-09T21:28:53.074Z,100736.91
2022-12-09T21:31:24.583Z,100729.91
2022-12-09T21:33:54.330Z,100735.25
2022-12-09T21:36:24.854Z,100740.16
2022-12-09T21:38:53.624Z,100739.34
2022-12-09T21:41:23.530Z,100745.91
2022-12-09T21:43:52.213Z,100744.69
2022-12-09T21:46:23.353Z,100747.56
2022-12-09T21:48:54.242Z,100748.56
2022-12-09T21:51:24.373Z,100747.13
2022-12-09T21:53:52.163Z,100747.31
2022-12-09T21:56:22.612Z,100747.31
2022-12-09T21:58:52.550Z,100739.50
2022-12-09T22:01:23.890Z,100743.19
2022-12-09T22:03:51.586Z,100737.03
2022-12-09T22:06:19.400Z,100732.09
2022-12-09T22:08:47.265Z,100734.75
2022-12-09T22:11:17.669Z,100735.59
2022-12-09T22:13:45.890Z,100743.16
2022-12-09T22:16:16.325Z,100750.34
2022-12-09T22:18:45.560Z,100749.72
2022-12-09T22:21:24.646Z,100755.25
2022-12-09T22:23:54.248Z,100759.75
2022-12-09T22:26:22.725Z,100763.44
2022-12-09T22:28:50.784Z,100761.59
2022-12-09T22:31:21.341Z,100764.47
2022-12-09T22:33:51.659Z,100759.28
2022-12-09T22:36:20.294Z,100763.84
2022-12-09T22:38:48.775Z,100765.47
2022-12-09T22:41:18.815Z,100758.66
2022-12-09T22:43:48.132Z,100776.53
2022-12-09T22:46:17.529Z,100768.72
2022-12-09T22:48:45.611Z,100767.72
2022-12-09T22:51:16.305Z,100778.56
2022-12-09T22:53:44.972Z,100769.94
2022-12-09T22:56:13.526Z,100769.13
2022-12-09T22:58:41.533Z,100766.66
2022-12-09T23:01:14.245Z,100774.03
2022-12-09T23:03:42.429Z,100771.34
2022-12-09T23:06:10.561Z,100755.28
2022-12-09T23:08:41.845Z,100767.41
2022-12-09T23:11:16.403Z,100768.06
2022-12-09T23:13:44.517Z,100762.09
2022-12-09T23:16:15.369Z,100763.09
2022-12-09T23:18:43.634Z,100763.94
2022-12-09T23:21:16.431Z,100770.47
2022-12-09T23:23:45.594Z,100773.16
2022-12-09T23:26:16.500Z,100770.47
2022-12-09T23:28:45.929Z,100762.44
2022-12-09T23:31:15.702Z,100770.88
2022-12-09T23:33:45.400Z,100764.69
2022-12-09T23:36:14.815Z,100762.22
2022-12-09T23:38:43.316Z,100763.31
2022-12-09T23:41:13.603Z,100742.25
2022-12-09T23:43:42.003Z,100768.38
2022-12-09T23:46:15.748Z,100761.59
2022-12-09T23:48:44.135Z,100762.81
2022-12-09T23:51:13.112Z,100767.13
2022-12-09T23:53:41.625Z,100772.44
2022-12-09T23:56:13.483Z,100777.78
2022-12-09T23:58:42.068Z,100780.44
